sensor_id;sensor_type;location;lat;lon;timestamp;P1;durP1;ratioP1;P2;durP2;ratioP2
10230;SDS011;62604;49.432;8.680;2022-09-27T00:00:58;2.80;;;1.67;;
10230;SDS011;62604;49.432;8.680;2022-09-27T00:03:25;2.50;;;1.50;;
10230;SDS011;62604;49.432;8.680;2022-09-27T00:05:59;4.53;;;1.73;;
10230;SDS011;62604;49.432;8.680;2022-09-27T00:08:29;4.13;;;1.87;;
10230;SDS011;62604;49.432;8.680;2022-09-27T00:10:58;1.50;;;1.40;;
10230;SDS011;62604;49.432;8.680;2022-09-27T00:13:26;1.43;;;1.33;;
10230;SDS011;62604;49.432;8.680;2022-09-27T00:15:55;2.83;;;1.60;;
10230;SDS011;62604;49.432;8.680;2022-09-27T00:18:24;1.50;;;1.40;;
10230;SDS011;62604;49.432;8.680;2022-09-27T00:20:52;3.57;;;1.50;;
10230;SDS011;62604;49.432;8.680;2022-09-27T00:23:19;1.67;;;1.57;;
10230;SDS011;62604;49.432;8.680;2022-09-27T00:25:53;1.63;;;1.53;;
10230;SDS011;62604;49.432;8.680;2022-09-27T00:28:21;3.87;;;1.90;;
10230;SDS011;62604;49.432;8.680;2022-09-27T00:30:49;4.03;;;1.70;;
10230;SDS011;62604;49.432;8.680;2022-09-27T00:33:16;1.50;;;1.40;;
10230;SDS011;62604;49.432;8.680;2022-09-27T00:35:45;4.40;;;1.50;;
10230;SDS011;62604;49.432;8.680;2022-09-27T00:38:12;1.30;;;1.20;;
10230;SDS011;62604;49.432;8.680;2022-09-27T00:40:40;1.50;;;1.33;;
10230;SDS011;62604;49.432;8.680;2022-09-27T00:43:12;1.70;;;1.60;;
10230;SDS011;62604;49.432;8.680;2022-09-27T00:45:43;1.83;;;1.70;;
10230;SDS011;62604;49.432;8.680;2022-09-27T00:48:16;1.30;;;1.20;;
10230;SDS011;62604;49.432;8.680;2022-09-27T00:50:47;2.17;;;1.80;;
10230;SDS011;62604;49.432;8.680;2022-09-27T00:53:18;1.40;;;1.30;;
10230;SDS011;62604;49.432;8.680;2022-09-27T00:55:51;1.60;;;1.50;;
10230;SDS011;62604;49.432;8.680;2022-09-27T00:58:23;1.60;;;1.50;;
10230;SDS011;62604;49.432;8.680;2022-09-27T01:00:55;1.93;;;1.43;;
10230;SDS011;62604;49.432;8.680;2022-09-27T01:03:30;1.47;;;1.37;;
10230;SDS011;62604;49.432;8.680;2022-09-27T01:06:03;1.40;;;1.30;;
10230;SDS011;62604;49.432;8.680;2022-09-27T01:08:33;1.60;;;1.50;;
10230;SDS011;62604;49.432;8.680;2022-09-27T01:11:09;1.60;;;1.50;;
10230;SDS011;62604;49.432;8.680;2022-09-27T01:13:42;1.53;;;1.43;;
10230;SDS011;62604;49.432;8.680;2022-09-27T01:16:22;1.60;;;1.50;;
10230;SDS011;62604;49.432;8.680;2022-09-27T01:18:58;5.50;;;5.20;;
10230;SDS011;62604;49.432;8.680;2022-09-27T01:21:38;9.93;;;9.43;;
10230;SDS011;62604;49.432;8.680;2022-09-27T01:27:24;9.50;;;8.90;;
10230;SDS011;62604;49.432;8.680;2022-09-27T01:30:20;9.10;;;8.60;;
10230;SDS011;62604;49.432;8.680;2022-09-27T01:32:52;9.10;;;8.50;;
10230;SDS011;62604;49.432;8.680;2022-09-27T01:35:31;7.97;;;7.37;;
10230;SDS011;62604;49.432;8.680;2022-09-27T01:38:05;7.87;;;7.47;;
10230;SDS011;62604;49.432;8.680;2022-09-27T01:40:40;8.50;;;8.00;;
10230;SDS011;62604;49.432;8.680;2022-09-27T01:43:15;8.03;;;7.60;;
10230;SDS011;62604;49.432;8.680;2022-09-27T01:45:49;7.80;;;7.47;;
10230;SDS011;62604;49.432;8.680;2022-09-27T01:48:21;7.40;;;7.00;;
10230;SDS011;62604;49.432;8.680;2022-09-27T01:50:50;7.87;;;7.47;;
10230;SDS011;62604;49.432;8.680;2022-09-27T01:53:22;8.00;;;7.60;;
10230;SDS011;62604;49.432;8.680;2022-09-27T01:55:51;8.97;;;8.47;;
10230;SDS011;62604;49.432;8.680;2022-09-27T01:58:21;8.70;;;8.10;;
10230;SDS011;62604;49.432;8.680;2022-09-27T02:00:54;8.60;;;8.20;;
10230;SDS011;62604;49.432;8.680;2022-09-27T02:03:23;8.47;;;7.97;;
10230;SDS011;62604;49.432;8.680;2022-09-27T02:05:56;9.60;;;9.10;;
10230;SDS011;62604;49.432;8.680;2022-09-27T02:08:28;9.10;;;8.37;;
10230;SDS011;62604;49.432;8.680;2022-09-27T02:11:03;8.57;;;8.17;;
10230;SDS011;62604;49.432;8.680;2022-09-27T02:13:36;8.40;;;7.90;;
10230;SDS011;62604;49.432;8.680;2022-09-27T02:16:10;8.07;;;7.67;;
10230;SDS011;62604;49.432;8.680;2022-09-27T02:18:49;8.60;;;8.10;;
10230;SDS011;62604;49.432;8.680;2022-09-27T02:21:23;9.17;;;8.57;;
10230;SDS011;62604;49.432;8.680;2022-09-27T02:23:57;7.80;;;7.40;;
10230;SDS011;62604;49.432;8.680;2022-09-27T02:26:30;7.07;;;6.60;;
10230;SDS011;62604;49.432;8.680;2022-09-27T02:29:05;8.00;;;7.50;;
10230;SDS011;62604;49.432;8.680;2022-09-27T02:31:37;8.50;;;8.10;;
10230;SDS011;62604;49.432;8.680;2022-09-27T02:34:06;9.97;;;9.43;;
10230;SDS011;62604;49.432;8.680;2022-09-27T02:36:37;8.43;;;7.93;;
10230;SDS011;62604;49.432;8.680;2022-09-27T02:39:05;7.97;;;7.57;;
10230;SDS011;62604;49.432;8.680;2022-09-27T02:41:33;8.57;;;7.97;;
10230;SDS011;62604;49.432;8.680;2022-09-27T02:44:02;8.10;;;7.70;;
10230;SDS011;62604;49.432;8.680;2022-09-27T02:49:32;8.33;;;7.83;;
10230;SDS011;62604;49.432;8.680;2022-09-27T02:52:15;6.93;;;6.60;;
10230;SDS011;62604;49.432;8.680;2022-09-27T02:54:51;7.50;;;6.90;;
10230;SDS011;62604;49.432;8.680;2022-09-27T02:57:32;6.33;;;6.03;;
10230;SDS011;62604;49.432;8.680;2022-09-27T03:00:07;6.80;;;6.30;;
10230;SDS011;62604;49.432;8.680;2022-09-27T03:02:42;7.90;;;7.50;;
10230;SDS011;62604;49.432;8.680;2022-09-27T03:05:19;8.80;;;8.30;;
10230;SDS011;62604;49.432;8.680;2022-09-27T03:07:49;8.17;;;7.57;;
10230;SDS011;62604;49.432;8.680;2022-09-27T03:10:17;8.63;;;8.03;;
10230;SDS011;62604;49.432;8.680;2022-09-27T03:12:45;9.17;;;8.70;;
10230;SDS011;62604;49.432;8.680;2022-09-27T03:15:13;9.30;;;8.77;;
10230;SDS011;62604;49.432;8.680;2022-09-27T03:17:42;8.67;;;8.10;;
10230;SDS011;62604;49.432;8.680;2022-09-27T03:20:09;9.30;;;8.60;;
10230;SDS011;62604;49.432;8.680;2022-09-27T03:22:36;9.30;;;8.53;;
10230;SDS011;62604;49.432;8.680;2022-09-27T03:25:05;8.67;;;8.17;;
10230;SDS011;62604;49.432;8.680;2022-09-27T03:27:32;9.93;;;8.90;;
10230;SDS011;62604;49.432;8.680;2022-09-27T03:30:00;8.93;;;8.43;;
10230;SDS011;62604;49.432;8.680;2022-09-27T03:32:27;9.20;;;8.40;;
10230;SDS011;62604;49.432;8.680;2022-09-27T03:34:56;9.47;;;8.77;;
10230;SDS011;62604;49.432;8.680;2022-09-27T03:37:23;9.73;;;9.13;;
10230;SDS011;62604;49.432;8.680;2022-09-27T03:39:53;9.33;;;8.73;;
10230;SDS011;62604;49.432;8.680;2022-09-27T03:42:20;9.67;;;9.07;;
10230;SDS011;62604;49.432;8.680;2022-09-27T03:44:48;9.47;;;8.90;;
10230;SDS011;62604;49.432;8.680;2022-09-27T03:47:15;10.07;;;9.23;;
10230;SDS011;62604;49.432;8.680;2022-09-27T03:49:43;9.37;;;8.87;;
10230;SDS011;62604;49.432;8.680;2022-09-27T03:52:12;9.30;;;8.73;;
10230;SDS011;62604;49.432;8.680;2022-09-27T03:54:40;10.73;;;9.67;;
10230;SDS011;62604;49.432;8.680;2022-09-27T03:57:08;10.47;;;9.83;;
10230;SDS011;62604;49.432;8.680;2022-09-27T03:59:35;9.87;;;9.07;;
10230;SDS011;62604;49.432;8.680;2022-09-27T04:02:02;8.93;;;8.23;;
10230;SDS011;62604;49.432;8.680;2022-09-27T04:04:30;9.00;;;8.17;;
10230;SDS011;62604;49.432;8.680;2022-09-27T04:06:57;6.83;;;6.33;;
10230;SDS011;62604;49.432;8.680;2022-09-27T04:09:26;7.23;;;6.73;;
10230;SDS011;62604;49.432;8.680;2022-09-27T04:11:53;7.23;;;6.73;;
10230;SDS011;62604;49.432;8.680;2022-09-27T04:14:20;7.70;;;7.10;;
10230;SDS011;62604;49.432;8.680;2022-09-27T04:16:47;7.40;;;7.00;;
10230;SDS011;62604;49.432;8.680;2022-09-27T04:19:15;6.83;;;6.33;;
10230;SDS011;62604;49.432;8.680;2022-09-27T04:21:42;8.13;;;7.40;;
10230;SDS011;62604;49.432;8.680;2022-09-27T04:24:10;7.10;;;6.67;;
10230;SDS011;62604;49.432;8.680;2022-09-27T04:26:38;7.00;;;6.50;;
10230;SDS011;62604;49.432;8.680;2022-09-27T04:29:06;7.40;;;6.90;;
10230;SDS011;62604;49.432;8.680;2022-09-27T04:31:34;7.00;;;6.60;;
10230;SDS011;62604;49.432;8.680;2022-09-27T04:34:02;6.60;;;6.17;;
10230;SDS011;62604;49.432;8.680;2022-09-27T04:36:30;7.57;;;7.17;;
10230;SDS011;62604;49.432;8.680;2022-09-27T04:38:58;7.33;;;6.83;;
10230;SDS011;62604;49.432;8.680;2022-09-27T04:41:27;8.00;;;7.60;;
10230;SDS011;62604;49.432;8.680;2022-09-27T04:43:56;7.83;;;7.40;;
10230;SDS011;62604;49.432;8.680;2022-09-27T04:46:25;7.80;;;7.30;;
10230;SDS011;62604;49.432;8.680;2022-09-27T04:48:55;8.00;;;7.50;;
10230;SDS011;62604;49.432;8.680;2022-09-27T04:51:23;7.67;;;7.00;;
10230;SDS011;62604;49.432;8.680;2022-09-27T04:53:51;7.50;;;7.10;;
10230;SDS011;62604;49.432;8.680;2022-09-27T04:56:18;8.73;;;7.30;;
10230;SDS011;62604;49.432;8.680;2022-09-27T04:58:46;7.13;;;6.73;;
10230;SDS011;62604;49.432;8.680;2022-09-27T05:01:15;7.87;;;7.37;;
10230;SDS011;62604;49.432;8.680;2022-09-27T05:03:43;8.03;;;7.53;;
10230;SDS011;62604;49.432;8.680;2022-09-27T05:06:10;7.80;;;7.30;;
10230;SDS011;62604;49.432;8.680;2022-09-27T05:08:38;7.90;;;7.50;;
10230;SDS011;62604;49.432;8.680;2022-09-27T05:11:05;8.23;;;7.83;;
10230;SDS011;62604;49.432;8.680;2022-09-27T05:13:32;7.13;;;6.63;;
10230;SDS011;62604;49.432;8.680;2022-09-27T05:16:01;8.77;;;8.17;;
10230;SDS011;62604;49.432;8.680;2022-09-27T05:18:31;8.87;;;8.07;;
10230;SDS011;62604;49.432;8.680;2022-09-27T05:20:58;7.93;;;7.53;;
10230;SDS011;62604;49.432;8.680;2022-09-27T05:23:25;9.00;;;8.50;;
10230;SDS011;62604;49.432;8.680;2022-09-27T05:25:52;8.40;;;7.90;;
10230;SDS011;62604;49.432;8.680;2022-09-27T05:28:20;8.20;;;7.60;;
10230;SDS011;62604;49.432;8.680;2022-09-27T05:30:48;8.23;;;7.80;;
10230;SDS011;62604;49.432;8.680;2022-09-27T05:33:16;8.67;;;8.00;;
10230;SDS011;62604;49.432;8.680;2022-09-27T05:35:51;8.53;;;8.13;;
10230;SDS011;62604;49.432;8.680;2022-09-27T05:38:19;7.83;;;7.43;;
10230;SDS011;62604;49.432;8.680;2022-09-27T05:40:47;7.90;;;7.50;;
10230;SDS011;62604;49.432;8.680;2022-09-27T05:43:15;7.87;;;7.37;;
10230;SDS011;62604;49.432;8.680;2022-09-27T05:45:44;7.50;;;7.00;;
10230;SDS011;62604;49.432;8.680;2022-09-27T05:48:11;7.53;;;7.13;;
10230;SDS011;62604;49.432;8.680;2022-09-27T05:50:39;6.47;;;6.17;;
10230;SDS011;62604;49.432;8.680;2022-09-27T05:53:09;6.80;;;6.40;;
10230;SDS011;62604;49.432;8.680;2022-09-27T05:55:37;8.00;;;7.60;;
10230;SDS011;62604;49.432;8.680;2022-09-27T05:58:05;8.00;;;7.40;;
10230;SDS011;62604;49.432;8.680;2022-09-27T06:00:33;8.53;;;7.73;;
10230;SDS011;62604;49.432;8.680;2022-09-27T06:03:01;8.00;;;7.60;;
10230;SDS011;62604;49.432;8.680;2022-09-27T06:05:30;7.60;;;7.20;;
10230;SDS011;62604;49.432;8.680;2022-09-27T06:08:02;6.37;;;5.97;;
10230;SDS011;62604;49.432;8.680;2022-09-27T06:10:34;6.00;;;5.53;;
10230;SDS011;62604;49.432;8.680;2022-09-27T06:13:03;5.90;;;5.60;;
10230;SDS011;62604;49.432;8.680;2022-09-27T06:15:33;6.30;;;6.00;;
10230;SDS011;62604;49.432;8.680;2022-09-27T06:18:03;6.30;;;5.90;;
10230;SDS011;62604;49.432;8.680;2022-09-27T06:20:32;6.83;;;6.33;;
10230;SDS011;62604;49.432;8.680;2022-09-27T06:23:04;5.60;;;5.10;;
10230;SDS011;62604;49.432;8.680;2022-09-27T06:25:35;5.30;;;5.00;;
10230;SDS011;62604;49.432;8.680;2022-09-27T06:28:03;5.33;;;4.93;;
10230;SDS011;62604;49.432;8.680;2022-09-27T06:30:31;5.33;;;5.03;;
10230;SDS011;62604;49.432;8.680;2022-09-27T06:32:59;5.70;;;5.40;;
10230;SDS011;62604;49.432;8.680;2022-09-27T06:35:29;6.13;;;5.80;;
10230;SDS011;62604;49.432;8.680;2022-09-27T06:37:58;5.90;;;5.50;;
10230;SDS011;62604;49.432;8.680;2022-09-27T06:40:29;5.97;;;5.50;;
10230;SDS011;62604;49.432;8.680;2022-09-27T06:43:02;6.23;;;5.83;;
10230;SDS011;62604;49.432;8.680;2022-09-27T06:45:29;5.37;;;4.97;;
10230;SDS011;62604;49.432;8.680;2022-09-27T06:47:58;5.03;;;4.80;;
10230;SDS011;62604;49.432;8.680;2022-09-27T06:50:26;4.40;;;4.10;;
10230;SDS011;62604;49.432;8.680;2022-09-27T06:52:54;4.43;;;4.13;;
10230;SDS011;62604;49.432;8.680;2022-09-27T06:55:24;3.30;;;3.10;;
10230;SDS011;62604;49.432;8.680;2022-09-27T06:57:53;3.37;;;2.20;;
10230;SDS011;62604;49.432;8.680;2022-09-27T07:00:41;2.70;;;2.40;;
10230;SDS011;62604;49.432;8.680;2022-09-27T07:03:15;3.50;;;3.30;;
10230;SDS011;62604;49.432;8.680;2022-09-27T07:05:52;2.97;;;2.73;;
10230;SDS011;62604;49.432;8.680;2022-09-27T21:41:21;7.90;;;7.50;;
10230;SDS011;62604;49.432;8.680;2022-09-27T21:43:50;8.70;;;8.20;;
10230;SDS011;62604;49.432;8.680;2022-09-27T21:46:32;10.87;;;10.10;;
10230;SDS011;62604;49.432;8.680;2022-09-27T21:49:10;1.70;;;1.60;;
10230;SDS011;62604;49.432;8.680;2022-09-27T21:51:40;1.50;;;1.40;;
10230;SDS011;62604;49.432;8.680;2022-09-27T21:54:09;1.70;;;1.60;;
10230;SDS011;62604;49.432;8.680;2022-09-27T21:56:40;2.10;;;1.53;;
10230;SDS011;62604;49.432;8.680;2022-09-27T21:59:09;1.50;;;1.40;;
10230;SDS011;62604;49.432;8.680;2022-09-27T22:01:40;1.80;;;1.70;;
10230;SDS011;62604;49.432;8.680;2022-09-27T22:04:09;1.83;;;1.60;;
10230;SDS011;62604;49.432;8.680;2022-09-27T22:06:41;2.10;;;1.60;;
10230;SDS011;62604;49.432;8.680;2022-09-27T22:09:11;1.60;;;1.50;;
10230;SDS011;62604;49.432;8.680;2022-09-27T22:11:42;1.47;;;1.37;;
10230;SDS011;62604;49.432;8.680;2022-09-27T22:14:11;1.60;;;1.50;;
10230;SDS011;62604;49.432;8.680;2022-09-27T22:16:40;2.03;;;1.63;;
10230;SDS011;62604;49.432;8.680;2022-09-27T22:19:09;1.50;;;1.40;;
10230;SDS011;62604;49.432;8.680;2022-09-27T22:21:38;3.40;;;1.80;;
10230;SDS011;62604;49.432;8.680;2022-09-27T22:24:10;1.60;;;1.50;;
10230;SDS011;62604;49.432;8.680;2022-09-27T22:26:39;1.40;;;1.30;;
10230;SDS011;62604;49.432;8.680;2022-09-27T22:29:11;3.23;;;1.80;;
10230;SDS011;62604;49.432;8.680;2022-09-27T22:31:41;2.03;;;1.40;;
10230;SDS011;62604;49.432;8.680;2022-09-27T22:34:11;2.47;;;2.10;;
10230;SDS011;62604;49.432;8.680;2022-09-27T22:36:42;1.50;;;1.40;;
10230;SDS011;62604;49.432;8.680;2022-09-27T22:39:09;1.50;;;1.40;;
10230;SDS011;62604;49.432;8.680;2022-09-27T22:41:37;1.60;;;1.50;;
10230;SDS011;62604;49.432;8.680;2022-09-27T22:44:05;3.07;;;1.73;;
10230;SDS011;62604;49.432;8.680;2022-09-27T22:46:32;2.60;;;1.83;;
10230;SDS011;62604;49.432;8.680;2022-09-27T22:49:00;1.70;;;1.60;;
10230;SDS011;62604;49.432;8.680;2022-09-27T22:51:27;1.60;;;1.50;;
10230;SDS011;62604;49.432;8.680;2022-09-27T22:53:55;1.63;;;1.53;;
10230;SDS011;62604;49.432;8.680;2022-09-27T22:56:23;1.50;;;1.40;;
10230;SDS011;62604;49.432;8.680;2022-09-27T22:58:50;1.47;;;1.37;;
10230;SDS011;62604;49.432;8.680;2022-09-27T23:01:20;3.43;;;1.50;;
10230;SDS011;62604;49.432;8.680;2022-09-27T23:03:48;2.03;;;1.60;;
10230;SDS011;62604;49.432;8.680;2022-09-27T23:06:17;2.33;;;1.70;;
10230;SDS011;62604;49.432;8.680;2022-09-27T23:08:45;1.93;;;1.70;;
10230;SDS011;62604;49.432;8.680;2022-09-27T23:11:13;1.63;;;1.53;;
10230;SDS011;62604;49.432;8.680;2022-09-27T23:13:43;3.53;;;1.73;;
10230;SDS011;62604;49.432;8.680;2022-09-27T23:16:11;2.10;;;1.67;;
10230;SDS011;62604;49.432;8.680;2022-09-27T23:18:41;8.33;;;7.93;;
10230;SDS011;62604;49.432;8.680;2022-09-27T23:21:09;9.03;;;8.50;;
10230;SDS011;62604;49.432;8.680;2022-09-27T23:23:37;7.70;;;7.20;;
10230;SDS011;62604;49.432;8.680;2022-09-27T23:26:07;7.63;;;7.23;;
10230;SDS011;62604;49.432;8.680;2022-09-27T23:28:36;7.70;;;7.30;;
10230;SDS011;62604;49.432;8.680;2022-09-27T23:31:04;8.00;;;7.67;;
10230;SDS011;62604;49.432;8.680;2022-09-27T23:33:32;8.40;;;7.90;;
10230;SDS011;62604;49.432;8.680;2022-09-27T23:36:01;7.90;;;7.47;;
10230;SDS011;62604;49.432;8.680;2022-09-27T23:38:29;7.37;;;6.90;;
10230;SDS011;62604;49.432;8.680;2022-09-27T23:40:56;7.53;;;7.23;;
10230;SDS011;62604;49.432;8.680;2022-09-27T23:43:24;8.07;;;7.67;;
10230;SDS011;62604;49.432;8.680;2022-09-27T23:45:51;9.17;;;8.67;;
10230;SDS011;62604;49.432;8.680;2022-09-27T23:48:19;10.40;;;9.90;;
10230;SDS011;62604;49.432;8.680;2022-09-27T23:50:47;9.00;;;8.60;;
10230;SDS011;62604;49.432;8.680;2022-09-27T23:53:15;9.13;;;8.63;;
10230;SDS011;62604;49.432;8.680;2022-09-27T23:55:42;9.07;;;8.67;;
10230;SDS011;62604;49.432;8.680;2022-09-27T23:58:09;9.10;;;8.70;;
